sensor_id;sensor_type;location;lat;lon;timestamp;P1;durP1;ratioP1;P2;durP2;ratioP2
32812;SDS011;19162;48.254;11.454;2023-02-27T00:01:09;3.13;;;2.73;;
32812;SDS011;19162;48.254;11.454;2023-02-27T00:04:09;2.90;;;2.17;;
32812;SDS011;19162;48.254;11.454;2023-02-27T00:07:09;3.27;;;2.43;;
32812;SDS011;19162;48.254;11.454;2023-02-27T00:10:10;2.90;;;2.33;;
32812;SDS011;19162;48.254;11.454;2023-02-27T00:13:10;3.17;;;2.25;;
32812;SDS011;19162;48.254;11.454;2023-02-27T00:16:11;2.65;;;2.45;;
32812;SDS011;19162;48.254;11.454;2023-02-27T00:19:11;2.70;;;2.50;;
32812;SDS011;19162;48.254;11.454;2023-02-27T00:22:12;5.03;;;3.90;;
32812;SDS011;19162;48.254;11.454;2023-02-27T00:25:12;2.47;;;2.27;;
32812;SDS011;19162;48.254;11.454;2023-02-27T00:28:13;2.85;;;2.20;;
32812;SDS011;19162;48.254;11.454;2023-02-27T00:31:13;2.63;;;2.42;;
32812;SDS011;19162;48.254;11.454;2023-02-27T00:34:13;3.38;;;2.10;;
32812;SDS011;19162;48.254;11.454;2023-02-27T00:37:14;2.35;;;1.92;;
32812;SDS011;19162;48.254;11.454;2023-02-27T00:40:15;2.55;;;2.35;;
32812;SDS011;19162;48.254;11.454;2023-02-27T00:43:15;3.15;;;2.53;;
32812;SDS011;19162;48.254;11.454;2023-02-27T00:46:15;3.15;;;2.22;;
32812;SDS011;19162;48.254;11.454;2023-02-27T00:49:16;3.00;;;1.97;;
32812;SDS011;19162;48.254;11.454;2023-02-27T00:52:16;2.37;;;2.17;;
32812;SDS011;19162;48.254;11.454;2023-02-27T00:55:16;2.50;;;2.30;;
32812;SDS011;19162;48.254;11.454;2023-02-27T00:58:16;2.60;;;2.40;;
32812;SDS011;19162;48.254;11.454;2023-02-27T01:01:16;4.80;;;2.20;;
32812;SDS011;19162;48.254;11.454;2023-02-27T01:04:17;2.50;;;2.30;;
32812;SDS011;19162;48.254;11.454;2023-02-27T01:07:17;2.40;;;2.00;;
32812;SDS011;19162;48.254;11.454;2023-02-27T01:10:17;2.70;;;2.03;;
32812;SDS011;19162;48.254;11.454;2023-02-27T01:13:17;2.67;;;2.30;;
32812;SDS011;19162;48.254;11.454;2023-02-27T01:16:17;2.40;;;2.20;;
32812;SDS011;19162;48.254;11.454;2023-02-27T01:19:17;3.47;;;2.45;;
32812;SDS011;19162;48.254;11.454;2023-02-27T01:22:18;2.38;;;1.83;;
32812;SDS011;19162;48.254;11.454;2023-02-27T01:25:18;2.25;;;1.85;;
32812;SDS011;19162;48.254;11.454;2023-02-27T01:28:18;2.35;;;2.00;;
32812;SDS011;19162;48.254;11.454;2023-02-27T01:31:18;2.22;;;1.98;;
32812;SDS011;19162;48.254;11.454;2023-02-27T01:34:18;3.37;;;2.30;;
32812;SDS011;19162;48.254;11.454;2023-02-27T01:37:19;3.30;;;2.03;;
32812;SDS011;19162;48.254;11.454;2023-02-27T01:40:19;2.95;;;2.55;;
32812;SDS011;19162;48.254;11.454;2023-02-27T01:43:19;2.30;;;2.00;;
32812;SDS011;19162;48.254;11.454;2023-02-27T01:46:20;2.88;;;2.25;;
32812;SDS011;19162;48.254;11.454;2023-02-27T01:49:21;1.92;;;1.73;;
32812;SDS011;19162;48.254;11.454;2023-02-27T01:52:23;1.80;;;1.70;;
32812;SDS011;19162;48.254;11.454;2023-02-27T01:55:23;2.70;;;1.80;;
32812;SDS011;19162;48.254;11.454;2023-02-27T01:58:24;1.83;;;1.73;;
32812;SDS011;19162;48.254;11.454;2023-02-27T02:01:26;2.10;;;2.00;;
32812;SDS011;19162;48.254;11.454;2023-02-27T02:04:27;2.90;;;2.10;;
32812;SDS011;19162;48.254;11.454;2023-02-27T02:07:27;2.92;;;2.03;;
32812;SDS011;19162;48.254;11.454;2023-02-27T02:10:28;3.17;;;2.40;;
32812;SDS011;19162;48.254;11.454;2023-02-27T02:13:29;3.13;;;2.08;;
32812;SDS011;19162;48.254;11.454;2023-02-27T02:16:34;2.42;;;1.83;;
32812;SDS011;19162;48.254;11.454;2023-02-27T02:20:00;2.65;;;2.25;;
32812;SDS011;19162;48.254;11.454;2023-02-27T02:32:46;3.50;;;2.47;;
32812;SDS011;19162;48.254;11.454;2023-02-27T02:42:15;2.13;;;1.95;;
32812;SDS011;19162;48.254;11.454;2023-02-27T02:45:16;2.45;;;2.00;;
32812;SDS011;19162;48.254;11.454;2023-02-27T02:48:19;2.47;;;1.65;;
32812;SDS011;19162;48.254;11.454;2023-02-27T02:55:00;2.25;;;2.15;;
32812;SDS011;19162;48.254;11.454;2023-02-27T02:58:07;2.65;;;2.40;;
32812;SDS011;19162;48.254;11.454;2023-02-27T03:01:16;3.42;;;2.40;;
32812;SDS011;19162;48.254;11.454;2023-02-27T03:04:20;3.00;;;2.30;;
32812;SDS011;19162;48.254;11.454;2023-02-27T03:07:23;2.92;;;2.42;;
32812;SDS011;19162;48.254;11.454;2023-02-27T03:10:25;2.42;;;2.20;;
32812;SDS011;19162;48.254;11.454;2023-02-27T03:13:29;2.55;;;2.35;;
32812;SDS011;19162;48.254;11.454;2023-02-27T03:16:33;2.40;;;2.20;;
32812;SDS011;19162;48.254;11.454;2023-02-27T03:19:40;2.38;;;2.17;;
32812;SDS011;19162;48.254;11.454;2023-02-27T03:22:42;3.15;;;1.80;;
32812;SDS011;19162;48.254;11.454;2023-02-27T03:25:44;2.33;;;2.00;;
32812;SDS011;19162;48.254;11.454;2023-02-27T03:28:55;2.75;;;2.00;;
32812;SDS011;19162;48.254;11.454;2023-02-27T03:32:03;3.13;;;2.08;;
32812;SDS011;19162;48.254;11.454;2023-02-27T03:35:07;2.40;;;2.20;;
32812;SDS011;19162;48.254;11.454;2023-02-27T03:38:15;2.83;;;2.28;;
32812;SDS011;19162;48.254;11.454;2023-02-27T03:44:22;4.30;;;2.47;;
32812;SDS011;19162;48.254;11.454;2023-02-27T03:47:25;2.58;;;2.38;;
32812;SDS011;19162;48.254;11.454;2023-02-27T03:50:25;2.78;;;2.40;;
32812;SDS011;19162;48.254;11.454;2023-02-27T03:59:29;2.97;;;2.40;;
32812;SDS011;19162;48.254;11.454;2023-02-27T04:02:30;4.40;;;2.17;;
32812;SDS011;19162;48.254;11.454;2023-02-27T04:05:31;3.80;;;2.08;;
32812;SDS011;19162;48.254;11.454;2023-02-27T04:11:51;2.50;;;2.22;;
32812;SDS011;19162;48.254;11.454;2023-02-27T04:28:00;2.60;;;2.35;;
32812;SDS011;19162;48.254;11.454;2023-02-27T04:34:23;2.30;;;2.13;;
32812;SDS011;19162;48.254;11.454;2023-02-27T04:40:29;3.08;;;2.58;;
32812;SDS011;19162;48.254;11.454;2023-02-27T04:43:32;2.38;;;2.17;;
32812;SDS011;19162;48.254;11.454;2023-02-27T04:46:33;2.92;;;2.20;;
32812;SDS011;19162;48.254;11.454;2023-02-27T04:49:36;3.38;;;2.17;;
32812;SDS011;19162;48.254;11.454;2023-02-27T04:52:38;2.63;;;2.20;;
32812;SDS011;19162;48.254;11.454;2023-02-27T04:55:44;2.50;;;2.20;;
32812;SDS011;19162;48.254;11.454;2023-02-27T04:58:47;2.42;;;2.20;;
32812;SDS011;19162;48.254;11.454;2023-02-27T05:02:00;3.67;;;2.92;;
32812;SDS011;19162;48.254;11.454;2023-02-27T05:05:02;3.03;;;2.67;;
32812;SDS011;19162;48.254;11.454;2023-02-27T05:08:08;2.83;;;2.47;;
32812;SDS011;19162;48.254;11.454;2023-02-27T05:11:23;4.25;;;2.28;;
32812;SDS011;19162;48.254;11.454;2023-02-27T05:14:27;3.28;;;2.22;;
32812;SDS011;19162;48.254;11.454;2023-02-27T05:17:30;3.47;;;2.30;;
32812;SDS011;19162;48.254;11.454;2023-02-27T05:20:34;2.97;;;2.40;;
32812;SDS011;19162;48.254;11.454;2023-02-27T05:33:30;3.70;;;2.63;;
32812;SDS011;19162;48.254;11.454;2023-02-27T05:36:50;2.55;;;2.35;;
32812;SDS011;19162;48.254;11.454;2023-02-27T05:39:51;2.55;;;2.35;;
32812;SDS011;19162;48.254;11.454;2023-02-27T05:42:55;2.50;;;2.30;;
32812;SDS011;19162;48.254;11.454;2023-02-27T05:46:19;2.45;;;2.13;;
32812;SDS011;19162;48.254;11.454;2023-02-27T05:52:54;5.55;;;2.50;;
32812;SDS011;19162;48.254;11.454;2023-02-27T05:55:57;2.47;;;2.27;;
32812;SDS011;19162;48.254;11.454;2023-02-27T05:59:08;3.17;;;2.80;;
32812;SDS011;19162;48.254;11.454;2023-02-27T06:02:10;2.60;;;2.40;;
32812;SDS011;19162;48.254;11.454;2023-02-27T06:05:14;2.78;;;2.58;;
32812;SDS011;19162;48.254;11.454;2023-02-27T06:08:15;4.65;;;2.88;;
32812;SDS011;19162;48.254;11.454;2023-02-27T06:11:15;3.23;;;2.70;;
32812;SDS011;19162;48.254;11.454;2023-02-27T06:14:16;3.05;;;2.75;;
32812;SDS011;19162;48.254;11.454;2023-02-27T06:17:17;3.25;;;2.53;;
32812;SDS011;19162;48.254;11.454;2023-02-27T06:20:17;2.60;;;2.40;;
32812;SDS011;19162;48.254;11.454;2023-02-27T06:23:17;2.63;;;2.43;;
32812;SDS011;19162;48.254;11.454;2023-02-27T06:26:17;2.83;;;2.63;;
32812;SDS011;19162;48.254;11.454;2023-02-27T06:29:17;4.10;;;2.55;;
32812;SDS011;19162;48.254;11.454;2023-02-27T06:32:18;5.35;;;3.28;;
32812;SDS011;19162;48.254;11.454;2023-02-27T06:35:18;4.13;;;3.42;;
32812;SDS011;19162;48.254;11.454;2023-02-27T06:38:19;4.93;;;3.53;;
32812;SDS011;19162;48.254;11.454;2023-02-27T06:41:19;3.67;;;3.00;;
32812;SDS011;19162;48.254;11.454;2023-02-27T06:44:19;3.83;;;3.15;;
32812;SDS011;19162;48.254;11.454;2023-02-27T06:47:19;7.60;;;6.43;;
32812;SDS011;19162;48.254;11.454;2023-02-27T06:50:20;5.40;;;3.03;;
32812;SDS011;19162;48.254;11.454;2023-02-27T06:53:20;3.50;;;3.07;;
32812;SDS011;19162;48.254;11.454;2023-02-27T06:56:20;2.67;;;2.47;;
32812;SDS011;19162;48.254;11.454;2023-02-27T06:59:21;3.95;;;2.80;;
32812;SDS011;19162;48.254;11.454;2023-02-27T07:02:21;2.83;;;2.63;;
32812;SDS011;19162;48.254;11.454;2023-02-27T07:05:22;2.97;;;2.42;;
32812;SDS011;19162;48.254;11.454;2023-02-27T07:08:23;3.13;;;2.90;;
32812;SDS011;19162;48.254;11.454;2023-02-27T07:11:23;4.63;;;3.13;;
32812;SDS011;19162;48.254;11.454;2023-02-27T07:14:23;3.67;;;2.83;;
32812;SDS011;19162;48.254;11.454;2023-02-27T07:17:24;2.80;;;2.60;;
32812;SDS011;19162;48.254;11.454;2023-02-27T07:20:24;2.10;;;1.90;;
32812;SDS011;19162;48.254;11.454;2023-02-27T07:23:25;2.83;;;2.63;;
32812;SDS011;19162;48.254;11.454;2023-02-27T07:26:25;6.20;;;2.80;;
32812;SDS011;19162;48.254;11.454;2023-02-27T07:29:25;4.28;;;3.20;;
32812;SDS011;19162;48.254;11.454;2023-02-27T07:32:26;4.10;;;3.15;;
32812;SDS011;19162;48.254;11.454;2023-02-27T07:35:26;4.57;;;3.00;;
32812;SDS011;19162;48.254;11.454;2023-02-27T07:38:27;2.85;;;2.63;;
32812;SDS011;19162;48.254;11.454;2023-02-27T07:41:27;3.60;;;2.92;;
32812;SDS011;19162;48.254;11.454;2023-02-27T07:44:28;3.97;;;3.10;;
32812;SDS011;19162;48.254;11.454;2023-02-27T07:47:28;5.60;;;3.17;;
32812;SDS011;19162;48.254;11.454;2023-02-27T07:50:29;4.65;;;2.72;;
32812;SDS011;19162;48.254;11.454;2023-02-27T07:53:29;2.83;;;2.42;;
32812;SDS011;19162;48.254;11.454;2023-02-27T07:56:29;3.88;;;2.92;;
32812;SDS011;19162;48.254;11.454;2023-02-27T07:59:30;4.97;;;2.95;;
32812;SDS011;19162;48.254;11.454;2023-02-27T08:02:30;6.88;;;3.30;;
32812;SDS011;19162;48.254;11.454;2023-02-27T08:05:31;3.13;;;2.60;;
32812;SDS011;19162;48.254;11.454;2023-02-27T08:08:31;3.27;;;2.90;;
32812;SDS011;19162;48.254;11.454;2023-02-27T08:11:31;6.25;;;3.05;;
32812;SDS011;19162;48.254;11.454;2023-02-27T08:14:32;4.43;;;2.70;;
32812;SDS011;19162;48.254;11.454;2023-02-27T08:17:32;5.53;;;2.80;;
32812;SDS011;19162;48.254;11.454;2023-02-27T08:20:32;2.67;;;2.37;;
32812;SDS011;19162;48.254;11.454;2023-02-27T08:23:32;4.22;;;3.15;;
32812;SDS011;19162;48.254;11.454;2023-02-27T08:26:33;5.07;;;3.03;;
32812;SDS011;19162;48.254;11.454;2023-02-27T08:29:33;3.43;;;2.70;;
32812;SDS011;19162;48.254;11.454;2023-02-27T08:32:34;3.43;;;3.13;;
32812;SDS011;19162;48.254;11.454;2023-02-27T08:35:34;5.00;;;2.60;;
32812;SDS011;19162;48.254;11.454;2023-02-27T08:38:34;3.40;;;3.10;;
32812;SDS011;19162;48.254;11.454;2023-02-27T08:41:35;3.38;;;2.83;;
32812;SDS011;19162;48.254;11.454;2023-02-27T08:44:35;4.07;;;3.10;;
32812;SDS011;19162;48.254;11.454;2023-02-27T08:47:35;4.37;;;2.67;;
32812;SDS011;19162;48.254;11.454;2023-02-27T08:50:36;3.45;;;2.63;;
32812;SDS011;19162;48.254;11.454;2023-02-27T08:53:36;5.55;;;2.88;;
32812;SDS011;19162;48.254;11.454;2023-02-27T08:56:36;6.95;;;3.67;;
32812;SDS011;19162;48.254;11.454;2023-02-27T08:59:36;7.83;;;4.13;;
32812;SDS011;19162;48.254;11.454;2023-02-27T09:02:37;4.30;;;3.90;;
32812;SDS011;19162;48.254;11.454;2023-02-27T09:05:37;6.40;;;3.75;;
32812;SDS011;19162;48.254;11.454;2023-02-27T09:08:37;4.03;;;3.20;;
32812;SDS011;19162;48.254;11.454;2023-02-27T09:11:37;7.90;;;3.15;;
32812;SDS011;19162;48.254;11.454;2023-02-27T09:14:38;2.85;;;2.65;;
32812;SDS011;19162;48.254;11.454;2023-02-27T09:17:39;3.00;;;2.50;;
32812;SDS011;19162;48.254;11.454;2023-02-27T09:20:39;4.70;;;3.42;;
32812;SDS011;19162;48.254;11.454;2023-02-27T09:23:40;2.13;;;1.92;;
32812;SDS011;19162;48.254;11.454;2023-02-27T09:26:40;4.70;;;3.13;;
32812;SDS011;19162;48.254;11.454;2023-02-27T09:29:40;4.72;;;3.42;;
32812;SDS011;19162;48.254;11.454;2023-02-27T09:32:41;3.95;;;3.22;;
32812;SDS011;19162;48.254;11.454;2023-02-27T09:35:41;3.77;;;3.37;;
32812;SDS011;19162;48.254;11.454;2023-02-27T09:38:41;4.30;;;2.92;;
32812;SDS011;19162;48.254;11.454;2023-02-27T09:41:46;4.68;;;3.47;;
32812;SDS011;19162;48.254;11.454;2023-02-27T09:44:56;3.13;;;2.88;;
32812;SDS011;19162;48.254;11.454;2023-02-27T09:48:02;4.40;;;3.28;;
32812;SDS011;19162;48.254;11.454;2023-02-27T09:51:05;3.55;;;3.25;;
32812;SDS011;19162;48.254;11.454;2023-02-27T09:54:05;5.75;;;3.60;;
32812;SDS011;19162;48.254;11.454;2023-02-27T09:57:06;4.32;;;3.35;;
32812;SDS011;19162;48.254;11.454;2023-02-27T10:09:35;3.50;;;3.20;;
32812;SDS011;19162;48.254;11.454;2023-02-27T10:15:57;5.88;;;3.10;;
32812;SDS011;19162;48.254;11.454;2023-02-27T10:18:59;4.20;;;3.80;;
32812;SDS011;19162;48.254;11.454;2023-02-27T10:22:00;3.20;;;2.90;;
32812;SDS011;19162;48.254;11.454;2023-02-27T10:28:12;6.35;;;3.13;;
32812;SDS011;19162;48.254;11.454;2023-02-27T10:31:14;3.40;;;3.08;;
32812;SDS011;19162;48.254;11.454;2023-02-27T10:34:16;3.42;;;3.05;;
32812;SDS011;19162;48.254;11.454;2023-02-27T10:37:17;3.60;;;2.88;;
32812;SDS011;19162;48.254;11.454;2023-02-27T10:40:18;3.97;;;3.38;;
32812;SDS011;19162;48.254;11.454;2023-02-27T10:43:19;3.47;;;3.17;;
32812;SDS011;19162;48.254;11.454;2023-02-27T10:46:26;3.80;;;2.93;;
32812;SDS011;19162;48.254;11.454;2023-02-27T10:49:28;3.33;;;3.03;;
32812;SDS011;19162;48.254;11.454;2023-02-27T10:52:29;4.63;;;3.17;;
32812;SDS011;19162;48.254;11.454;2023-02-27T10:55:30;4.27;;;3.10;;
32812;SDS011;19162;48.254;11.454;2023-02-27T10:58:33;4.53;;;3.30;;
32812;SDS011;19162;48.254;11.454;2023-02-27T11:01:43;2.70;;;2.50;;
32812;SDS011;19162;48.254;11.454;2023-02-27T11:04:49;2.97;;;2.63;;
32812;SDS011;19162;48.254;11.454;2023-02-27T11:07:53;2.70;;;2.50;;
32812;SDS011;19162;48.254;11.454;2023-02-27T11:10:58;3.75;;;2.95;;
32812;SDS011;19162;48.254;11.454;2023-02-27T11:14:14;6.07;;;3.08;;
32812;SDS011;19162;48.254;11.454;2023-02-27T11:23:28;3.38;;;3.03;;
32812;SDS011;19162;48.254;11.454;2023-02-27T11:29:35;3.67;;;2.97;;
32812;SDS011;19162;48.254;11.454;2023-02-27T11:32:42;2.58;;;2.28;;
32812;SDS011;19162;48.254;11.454;2023-02-27T11:35:47;4.85;;;2.75;;
32812;SDS011;19162;48.254;11.454;2023-02-27T11:38:54;4.78;;;3.50;;
32812;SDS011;19162;48.254;11.454;2023-02-27T11:41:55;4.93;;;3.13;;
32812;SDS011;19162;48.254;11.454;2023-02-27T11:44:59;3.20;;;2.65;;
32812;SDS011;19162;48.254;11.454;2023-02-27T11:48:07;4.88;;;3.38;;
32812;SDS011;19162;48.254;11.454;2023-02-27T11:57:33;3.15;;;2.42;;
32812;SDS011;19162;48.254;11.454;2023-02-27T12:00:48;2.40;;;2.20;;
32812;SDS011;19162;48.254;11.454;2023-02-27T12:04:03;2.65;;;2.30;;
32812;SDS011;19162;48.254;11.454;2023-02-27T12:07:13;3.85;;;2.80;;
32812;SDS011;19162;48.254;11.454;2023-02-27T12:10:23;3.25;;;2.90;;
32812;SDS011;19162;48.254;11.454;2023-02-27T12:13:26;4.60;;;2.50;;
32812;SDS011;19162;48.254;11.454;2023-02-27T12:16:30;3.35;;;2.20;;
32812;SDS011;19162;48.254;11.454;2023-02-27T12:22:34;4.90;;;2.80;;
32812;SDS011;19162;48.254;11.454;2023-02-27T12:25:41;3.70;;;2.63;;
32812;SDS011;19162;48.254;11.454;2023-02-27T12:28:56;2.22;;;2.03;;
32812;SDS011;19162;48.254;11.454;2023-02-27T12:32:00;3.25;;;2.70;;
32812;SDS011;19162;48.254;11.454;2023-02-27T12:35:22;3.60;;;2.30;;
32812;SDS011;19162;48.254;11.454;2023-02-27T12:38:23;3.03;;;2.08;;
32812;SDS011;19162;48.254;11.454;2023-02-27T12:54:07;2.92;;;2.15;;
32812;SDS011;19162;48.254;11.454;2023-02-27T13:00:10;3.22;;;2.63;;
32812;SDS011;19162;48.254;11.454;2023-02-27T13:03:45;2.47;;;2.28;;
32812;SDS011;19162;48.254;11.454;2023-02-27T13:09:49;3.43;;;2.83;;
32812;SDS011;19162;48.254;11.454;2023-02-27T13:12:53;2.60;;;2.40;;
32812;SDS011;19162;48.254;11.454;2023-02-27T13:15:57;2.38;;;2.13;;
32812;SDS011;19162;48.254;11.454;2023-02-27T13:19:03;2.50;;;2.30;;
32812;SDS011;19162;48.254;11.454;2023-02-27T13:22:10;4.43;;;2.42;;
32812;SDS011;19162;48.254;11.454;2023-02-27T13:25:14;3.60;;;2.15;;
32812;SDS011;19162;48.254;11.454;2023-02-27T13:28:21;4.25;;;2.05;;
32812;SDS011;19162;48.254;11.454;2023-02-27T13:31:25;2.72;;;2.53;;
32812;SDS011;19162;48.254;11.454;2023-02-27T13:34:39;3.58;;;3.10;;
32812;SDS011;19162;48.254;11.454;2023-02-27T13:40:52;2.97;;;2.63;;
32812;SDS011;19162;48.254;11.454;2023-02-27T13:43:53;3.05;;;2.70;;
32812;SDS011;19162;48.254;11.454;2023-02-27T13:46:54;2.45;;;2.25;;
32812;SDS011;19162;48.254;11.454;2023-02-27T13:49:54;3.53;;;2.72;;
32812;SDS011;19162;48.254;11.454;2023-02-27T13:52:55;3.22;;;2.65;;
32812;SDS011;19162;48.254;11.454;2023-02-27T14:05:21;3.05;;;2.45;;
32812;SDS011;19162;48.254;11.454;2023-02-27T14:08:36;3.47;;;2.70;;
32812;SDS011;19162;48.254;11.454;2023-02-27T14:11:37;3.00;;;2.60;;
32812;SDS011;19162;48.254;11.454;2023-02-27T14:14:42;4.20;;;2.55;;
32812;SDS011;19162;48.254;11.454;2023-02-27T14:17:44;3.67;;;2.35;;
32812;SDS011;19162;48.254;11.454;2023-02-27T14:20:47;2.97;;;2.17;;
32812;SDS011;19162;48.254;11.454;2023-02-27T14:23:47;3.17;;;2.88;;
32812;SDS011;19162;48.254;11.454;2023-02-27T14:26:48;2.80;;;2.30;;
32812;SDS011;19162;48.254;11.454;2023-02-27T14:29:50;5.97;;;2.88;;
32812;SDS011;19162;48.254;11.454;2023-02-27T14:32:53;2.25;;;2.10;;
32812;SDS011;19162;48.254;11.454;2023-02-27T14:36:01;4.00;;;2.88;;
32812;SDS011;19162;48.254;11.454;2023-02-27T14:39:01;3.85;;;2.65;;
32812;SDS011;19162;48.254;11.454;2023-02-27T14:45:22;6.43;;;3.85;;
32812;SDS011;19162;48.254;11.454;2023-02-27T14:48:25;2.63;;;2.42;;
32812;SDS011;19162;48.254;11.454;2023-02-27T14:51:26;2.60;;;1.92;;
32812;SDS011;19162;48.254;11.454;2023-02-27T14:54:29;3.47;;;2.53;;
32812;SDS011;19162;48.254;11.454;2023-02-27T14:57:29;4.13;;;2.63;;
32812;SDS011;19162;48.254;11.454;2023-02-27T15:00:30;2.75;;;2.42;;
32812;SDS011;19162;48.254;11.454;2023-02-27T15:03:38;2.67;;;2.40;;
32812;SDS011;19162;48.254;11.454;2023-02-27T15:06:41;6.57;;;3.58;;
32812;SDS011;19162;48.254;11.454;2023-02-27T15:09:42;5.57;;;2.75;;
32812;SDS011;19162;48.254;11.454;2023-02-27T15:12:43;4.20;;;2.50;;
32812;SDS011;19162;48.254;11.454;2023-02-27T15:15:43;3.10;;;2.73;;
32812;SDS011;19162;48.254;11.454;2023-02-27T15:18:48;2.87;;;2.43;;
32812;SDS011;19162;48.254;11.454;2023-02-27T15:21:50;3.75;;;2.60;;
32812;SDS011;19162;48.254;11.454;2023-02-27T15:24:51;3.45;;;3.15;;
32812;SDS011;19162;48.254;11.454;2023-02-27T15:27:51;3.20;;;2.90;;
32812;SDS011;19162;48.254;11.454;2023-02-27T15:30:52;4.88;;;3.17;;
32812;SDS011;19162;48.254;11.454;2023-02-27T15:33:53;3.35;;;3.05;;
32812;SDS011;19162;48.254;11.454;2023-02-27T15:36:54;2.92;;;2.63;;
32812;SDS011;19162;48.254;11.454;2023-02-27T15:39:56;3.35;;;2.70;;
32812;SDS011;19162;48.254;11.454;2023-02-27T15:42:57;3.47;;;3.03;;
32812;SDS011;19162;48.254;11.454;2023-02-27T15:45:58;3.50;;;3.20;;
32812;SDS011;19162;48.254;11.454;2023-02-27T15:48:58;4.27;;;3.03;;
32812;SDS011;19162;48.254;11.454;2023-02-27T15:52:12;3.85;;;3.33;;
32812;SDS011;19162;48.254;11.454;2023-02-27T15:55:15;3.35;;;2.92;;
32812;SDS011;19162;48.254;11.454;2023-02-27T15:58:20;3.38;;;3.08;;
32812;SDS011;19162;48.254;11.454;2023-02-27T16:01:22;3.75;;;2.97;;
32812;SDS011;19162;48.254;11.454;2023-02-27T16:04:23;3.65;;;3.22;;
32812;SDS011;19162;48.254;11.454;2023-02-27T16:07:24;4.35;;;3.20;;
32812;SDS011;19162;48.254;11.454;2023-02-27T16:10:28;5.75;;;3.58;;
32812;SDS011;19162;48.254;11.454;2023-02-27T16:13:36;4.40;;;4.00;;
32812;SDS011;19162;48.254;11.454;2023-02-27T16:16:36;4.05;;;3.58;;
32812;SDS011;19162;48.254;11.454;2023-02-27T16:19:37;3.25;;;2.95;;
32812;SDS011;19162;48.254;11.454;2023-02-27T16:22:59;3.92;;;3.28;;
32812;SDS011;19162;48.254;11.454;2023-02-27T16:29:19;3.28;;;2.97;;
32812;SDS011;19162;48.254;11.454;2023-02-27T16:35:21;3.40;;;3.10;;
32812;SDS011;19162;48.254;11.454;2023-02-27T16:38:22;4.40;;;3.67;;
32812;SDS011;19162;48.254;11.454;2023-02-27T16:41:22;3.63;;;3.07;;
32812;SDS011;19162;48.254;11.454;2023-02-27T16:44:23;3.53;;;3.22;;
32812;SDS011;19162;48.254;11.454;2023-02-27T16:47:23;4.63;;;3.08;;
32812;SDS011;19162;48.254;11.454;2023-02-27T16:50:32;3.22;;;3.00;;
32812;SDS011;19162;48.254;11.454;2023-02-27T16:53:32;4.20;;;3.63;;
32812;SDS011;19162;48.254;11.454;2023-02-27T16:56:33;5.77;;;3.47;;
32812;SDS011;19162;48.254;11.454;2023-02-27T16:59:34;3.80;;;3.50;;
32812;SDS011;19162;48.254;11.454;2023-02-27T17:02:35;3.85;;;3.25;;
32812;SDS011;19162;48.254;11.454;2023-02-27T17:05:35;4.67;;;3.50;;
32812;SDS011;19162;48.254;11.454;2023-02-27T17:08:35;4.57;;;2.87;;
32812;SDS011;19162;48.254;11.454;2023-02-27T17:11:35;4.37;;;3.30;;
32812;SDS011;19162;48.254;11.454;2023-02-27T17:14:35;4.00;;;3.60;;
32812;SDS011;19162;48.254;11.454;2023-02-27T17:17:36;8.05;;;6.10;;
32812;SDS011;19162;48.254;11.454;2023-02-27T17:20:37;5.50;;;4.97;;
32812;SDS011;19162;48.254;11.454;2023-02-27T17:23:37;4.07;;;3.67;;
32812;SDS011;19162;48.254;11.454;2023-02-27T17:26:37;4.10;;;3.22;;
32812;SDS011;19162;48.254;11.454;2023-02-27T17:29:38;3.97;;;3.57;;
32812;SDS011;19162;48.254;11.454;2023-02-27T17:32:38;3.33;;;2.78;;
32812;SDS011;19162;48.254;11.454;2023-02-27T17:35:38;4.05;;;3.33;;
32812;SDS011;19162;48.254;11.454;2023-02-27T17:38:38;3.93;;;3.53;;
32812;SDS011;19162;48.254;11.454;2023-02-27T17:41:39;5.43;;;3.33;;
32812;SDS011;19162;48.254;11.454;2023-02-27T17:44:39;3.78;;;3.47;;
32812;SDS011;19162;48.254;11.454;2023-02-27T17:47:40;3.42;;;3.13;;
32812;SDS011;19162;48.254;11.454;2023-02-27T17:50:40;5.75;;;4.40;;
32812;SDS011;19162;48.254;11.454;2023-02-27T17:53:40;5.18;;;3.80;;
32812;SDS011;19162;48.254;11.454;2023-02-27T17:56:41;3.83;;;3.45;;
32812;SDS011;19162;48.254;11.454;2023-02-27T17:59:41;6.33;;;3.80;;
32812;SDS011;19162;48.254;11.454;2023-02-27T18:02:44;4.25;;;3.28;;
32812;SDS011;19162;48.254;11.454;2023-02-27T18:05:49;4.22;;;3.55;;
32812;SDS011;19162;48.254;11.454;2023-02-27T18:08:49;4.45;;;3.67;;
32812;SDS011;19162;48.254;11.454;2023-02-27T18:11:50;4.25;;;3.38;;
32812;SDS011;19162;48.254;11.454;2023-02-27T18:14:50;3.43;;;3.13;;
32812;SDS011;19162;48.254;11.454;2023-02-27T18:17:53;5.17;;;3.80;;
32812;SDS011;19162;48.254;11.454;2023-02-27T18:28:25;4.40;;;4.00;;
32812;SDS011;19162;48.254;11.454;2023-02-27T18:31:35;5.68;;;4.00;;
32812;SDS011;19162;48.254;11.454;2023-02-27T18:35:37;4.80;;;4.40;;
32812;SDS011;19162;48.254;11.454;2023-02-27T18:38:38;4.15;;;3.72;;
32812;SDS011;19162;48.254;11.454;2023-02-27T18:41:39;4.45;;;3.80;;
32812;SDS011;19162;48.254;11.454;2023-02-27T18:44:39;5.07;;;4.40;;
32812;SDS011;19162;48.254;11.454;2023-02-27T18:47:49;4.72;;;4.30;;
32812;SDS011;19162;48.254;11.454;2023-02-27T18:51:06;4.32;;;3.92;;
32812;SDS011;19162;48.254;11.454;2023-02-27T19:01:26;4.07;;;3.67;;
32812;SDS011;19162;48.254;11.454;2023-02-27T19:04:42;5.65;;;4.20;;
32812;SDS011;19162;48.254;11.454;2023-02-27T19:08:00;3.97;;;3.65;;
32812;SDS011;19162;48.254;11.454;2023-02-27T19:11:04;4.00;;;3.65;;
32812;SDS011;19162;48.254;11.454;2023-02-27T19:14:05;5.55;;;3.88;;
32812;SDS011;19162;48.254;11.454;2023-02-27T19:17:31;3.97;;;3.58;;
32812;SDS011;19162;48.254;11.454;2023-02-27T19:20:41;6.10;;;3.97;;
32812;SDS011;19162;48.254;11.454;2023-02-27T19:23:50;3.47;;;3.17;;
32812;SDS011;19162;48.254;11.454;2023-02-27T19:27:00;4.22;;;3.83;;
32812;SDS011;19162;48.254;11.454;2023-02-27T19:30:04;4.93;;;4.18;;
32812;SDS011;19162;48.254;11.454;2023-02-27T19:33:09;4.55;;;3.38;;
32812;SDS011;19162;48.254;11.454;2023-02-27T19:36:28;4.53;;;3.40;;
32812;SDS011;19162;48.254;11.454;2023-02-27T19:39:51;4.20;;;3.80;;
32812;SDS011;19162;48.254;11.454;2023-02-27T19:49:53;4.47;;;3.92;;
32812;SDS011;19162;48.254;11.454;2023-02-27T19:52:56;3.83;;;3.50;;
32812;SDS011;19162;48.254;11.454;2023-02-27T19:59:48;6.95;;;3.50;;
32812;SDS011;19162;48.254;11.454;2023-02-27T20:06:26;4.47;;;2.95;;
32812;SDS011;19162;48.254;11.454;2023-02-27T20:09:32;3.70;;;2.65;;
32812;SDS011;19162;48.254;11.454;2023-02-27T20:12:33;3.25;;;2.72;;
32812;SDS011;19162;48.254;11.454;2023-02-27T20:19:33;3.00;;;2.67;;
32812;SDS011;19162;48.254;11.454;2023-02-27T20:22:52;3.45;;;2.92;;
32812;SDS011;19162;48.254;11.454;2023-02-27T20:33:21;2.60;;;2.17;;
32812;SDS011;19162;48.254;11.454;2023-02-27T20:39:54;3.45;;;2.70;;
32812;SDS011;19162;48.254;11.454;2023-02-27T20:42:54;3.03;;;2.30;;
32812;SDS011;19162;48.254;11.454;2023-02-27T20:45:55;2.70;;;1.85;;
32812;SDS011;19162;48.254;11.454;2023-02-27T20:48:56;2.60;;;2.40;;
32812;SDS011;19162;48.254;11.454;2023-02-27T20:51:58;2.20;;;2.00;;
32812;SDS011;19162;48.254;11.454;2023-02-27T20:54:58;2.47;;;2.27;;
32812;SDS011;19162;48.254;11.454;2023-02-27T20:57:58;2.20;;;1.93;;
32812;SDS011;19162;48.254;11.454;2023-02-27T21:00:58;3.08;;;2.05;;
32812;SDS011;19162;48.254;11.454;2023-02-27T21:04:03;3.13;;;2.55;;
32812;SDS011;19162;48.254;11.454;2023-02-27T21:07:03;2.70;;;2.40;;
32812;SDS011;19162;48.254;11.454;2023-02-27T21:10:03;3.83;;;2.25;;